createdAt,value
2023-03-21T00:00:41.822Z,75.07
2023-03-21T00:03:57.345Z,74.53
2023-03-21T00:07:01.070Z,74.52
2023-03-21T00:10:15.420Z,74.67
2023-03-21T00:13:22.014Z,75.08
2023-03-21T00:16:28.297Z,74.86
2023-03-21T00:19:44.932Z,74.55
2023-03-21T00:22:48.716Z,74.34
2023-03-21T00:25:54.595Z,74.78
2023-03-21T00:28:58.653Z,75.05
2023-03-21T00:32:03.057Z,75.09
2023-03-21T00:35:45.378Z,75.06
2023-03-21T00:38:31.463Z,75.11
2023-03-21T00:41:42.917Z,74.87
2023-03-21T00:44:47.696Z,75.01
2023-03-21T00:47:51.435Z,75.00
2023-03-21T00:50:59.350Z,75.02
2023-03-21T00:54:05.527Z,74.82
2023-03-21T00:57:11.128Z,75.34
2023-03-21T01:00:18.172Z,75.62
2023-03-21T01:03:25.304Z,75.32
2023-03-21T01:06:29.733Z,74.66
2023-03-21T01:09:33.950Z,75.35
2023-03-21T01:12:38.954Z,75.37
2023-03-21T01:15:47.199Z,75.56
2023-03-21T01:18:51.405Z,75.56
2023-03-21T01:21:56.108Z,75.38
2023-03-21T01:25:12.140Z,75.44
2023-03-21T01:28:28.902Z,75.36
2023-03-21T01:31:32.682Z,75.21
2023-03-21T01:34:36.768Z,75.26
2023-03-21T01:37:40.902Z,75.20
2023-03-21T01:40:48.708Z,75.06
2023-03-21T01:44:04.323Z,75.21
2023-03-21T01:47:12.977Z,75.72
2023-03-21T01:50:38.261Z,75.42
2023-03-21T01:54:01.379Z,75.75
2023-03-21T01:57:18.174Z,75.84
2023-03-21T02:00:29.578Z,76.19
2023-03-21T02:03:52.110Z,75.57
2023-03-21T02:07:31.681Z,75.49
2023-03-21T02:10:43.453Z,75.79
2023-03-21T02:13:55.815Z,75.73
2023-03-21T02:17:21.242Z,76.07
2023-03-21T02:21:15.358Z,76.75
2023-03-21T02:25:21.902Z,76.44
2023-03-21T02:28:34.066Z,75.55
2023-03-21T02:31:52.798Z,75.93
2023-03-21T02:35:39.075Z,76.35
2023-03-21T02:38:57.336Z,75.68
2023-03-21T02:42:10.136Z,75.63
2023-03-21T02:45:21.993Z,75.88
2023-03-21T02:48:50.224Z,75.77
2023-03-21T02:52:05.466Z,75.63
2023-03-21T02:55:26.662Z,75.73
2023-03-21T02:58:36.144Z,75.50
2023-03-21T03:01:41.898Z,75.80
2023-03-21T03:04:46.059Z,75.86
2023-03-21T03:08:11.438Z,76.73
2023-03-21T03:11:29.082Z,76.15
2023-03-21T03:15:03.099Z,76.42
2023-03-21T03:18:31.084Z,76.42
2023-03-21T03:21:43.518Z,76.19
2023-03-21T03:24:55.715Z,76.04
2023-03-21T03:28:05.779Z,75.87
2023-03-21T03:31:16.052Z,75.67
2023-03-21T03:34:39.572Z,76.04
2023-03-21T03:37:52.347Z,76.01
2023-03-21T03:41:02.803Z,76.48
2023-03-21T03:44:17.519Z,76.21
2023-03-21T03:47:44.718Z,76.14
2023-03-21T03:51:07.079Z,76.44
2023-03-21T03:54:46.124Z,75.59
2023-03-21T03:57:51.111Z,76.05
2023-03-21T04:00:59.224Z,76.48
2023-03-21T04:04:12.681Z,76.26
2023-03-21T04:07:18.064Z,76.08
2023-03-21T04:10:23.295Z,76.11
2023-03-21T04:13:27.559Z,76.36
2023-03-21T04:16:41.494Z,75.98
2023-03-21T04:19:45.580Z,75.71
2023-03-21T04:22:49.983Z,75.99
2023-03-21T04:25:56.961Z,76.08
2023-03-21T04:29:09.110Z,76.36
2023-03-21T04:32:54.062Z,76.43
2023-03-21T04:35:59.427Z,76.11
2023-03-21T04:39:12.436Z,76.55
2023-03-21T04:42:18.793Z,76.56
2023-03-21T04:45:23.122Z,75.76
2023-03-21T04:48:28.661Z,76.53
2023-03-21T04:51:34.340Z,76.91
2023-03-21T04:54:38.477Z,76.33
2023-03-21T04:57:42.467Z,76.58
2023-03-21T05:00:46.666Z,76.11
2023-03-21T05:03:51.902Z,76.24
2023-03-21T05:06:56.998Z,76.72
2023-03-21T05:10:02.566Z,76.96
2023-03-21T05:13:07.668Z,76.83
2023-03-21T05:16:11.698Z,76.65
2023-03-21T05:19:18.405Z,77.12
2023-03-21T05:22:26.828Z,77.15
2023-03-21T05:25:35.556Z,77.04
2023-03-21T05:28:51.723Z,77.44
2023-03-21T05:31:55.764Z,76.98
2023-03-21T05:35:01.048Z,76.99
2023-03-21T05:38:05.282Z,76.76
2023-03-21T05:41:19.181Z,76.51
2023-03-21T05:44:23.821Z,76.32
2023-03-21T05:47:28.087Z,76.59
2023-03-21T05:50:36.436Z,77.13
2023-03-21T05:53:49.632Z,76.93
2023-03-21T05:56:54.000Z,76.69
2023-03-21T06:00:10.784Z,76.59
2023-03-21T06:03:20.884Z,76.68
2023-03-21T06:06:46.537Z,76.85
2023-03-21T06:09:51.204Z,76.74
2023-03-21T06:12:55.063Z,76.99
2023-03-21T06:16:06.707Z,76.76
2023-03-21T06:19:12.888Z,76.38
2023-03-21T06:22:27.375Z,76.65
2023-03-21T06:25:31.241Z,76.61
2023-03-21T06:28:35.783Z,76.05
2023-03-21T06:31:40.000Z,76.02
2023-03-21T06:34:44.851Z,76.17
2023-03-21T06:37:52.954Z,76.53
2023-03-21T06:40:59.167Z,75.99
2023-03-21T06:44:06.528Z,76.14
2023-03-21T06:47:16.992Z,76.06
2023-03-21T06:50:22.723Z,76.35
2023-03-21T06:53:28.293Z,76.30
2023-03-21T06:56:50.508Z,76.40
2023-03-21T07:00:00.914Z,76.09
2023-03-21T07:03:05.158Z,76.35
2023-03-21T07:06:13.647Z,76.66
2023-03-21T07:09:21.597Z,75.58
2023-03-21T07:12:25.568Z,75.90
2023-03-21T07:15:58.343Z,76.71
2023-03-21T07:19:02.113Z,76.42
2023-03-21T07:22:06.087Z,76.22
2023-03-21T07:25:12.806Z,76.13
2023-03-21T07:28:17.225Z,76.23
2023-03-21T07:31:21.500Z,76.32
2023-03-21T07:34:27.438Z,76.38
2023-03-21T07:37:32.149Z,76.98
2023-03-21T07:40:37.857Z,76.00
2023-03-21T07:43:42.094Z,76.52
2023-03-21T07:46:47.170Z,75.59
2023-03-21T07:49:51.296Z,76.08
2023-03-21T07:52:55.279Z,76.51
2023-03-21T07:56:00.702Z,76.25
2023-03-21T07:59:05.400Z,76.20
2023-03-21T08:02:11.425Z,76.14
2023-03-21T08:05:15.213Z,76.03
2023-03-21T08:08:19.293Z,76.46
2023-03-21T08:11:24.689Z,75.65
2023-03-21T08:14:28.902Z,76.20
2023-03-21T08:17:32.483Z,76.19
2023-03-21T08:20:36.961Z,76.04
2023-03-21T08:23:41.122Z,75.89
2023-03-21T08:26:47.106Z,76.28
2023-03-21T08:29:50.905Z,75.92
2023-03-21T08:33:01.162Z,76.14
2023-03-21T08:36:07.801Z,76.02
2023-03-21T08:39:11.937Z,75.64
2023-03-21T08:42:17.075Z,74.71
2023-03-21T08:45:21.101Z,75.15
2023-03-21T08:48:25.408Z,74.45
2023-03-21T08:51:29.526Z,74.10
2023-03-21T08:54:33.601Z,73.95
2023-03-21T08:57:39.666Z,74.55
2023-03-21T09:00:43.369Z,73.77
2023-03-21T09:03:47.585Z,72.80
2023-03-21T09:06:51.936Z,73.19
2023-03-21T09:10:14.926Z,73.41
2023-03-21T09:13:21.510Z,73.05
2023-03-21T09:16:25.961Z,73.22
2023-03-21T09:19:30.365Z,71.69
2023-03-21T09:22:34.587Z,71.38
2023-03-21T09:25:38.941Z,71.10
2023-03-21T09:28:46.172Z,70.38
2023-03-21T09:31:50.014Z,70.00
2023-03-21T09:34:55.746Z,70.03
2023-03-21T09:38:01.399Z,69.68
2023-03-21T09:41:22.542Z,69.02
2023-03-21T09:44:46.570Z,70.49
2023-03-21T09:47:53.908Z,71.26
2023-03-21T09:50:57.906Z,71.28
2023-03-21T09:54:08.808Z,71.38
2023-03-21T09:57:28.009Z,71.86
2023-03-21T10:00:39.869Z,71.89
2023-03-21T10:03:44.836Z,71.80
2023-03-21T10:06:59.214Z,71.29
2023-03-21T10:10:06.343Z,71.08
2023-03-21T10:13:21.169Z,71.45
2023-03-21T10:16:33.401Z,71.37
2023-03-21T10:19:37.589Z,70.47
2023-03-21T10:22:41.877Z,71.13
2023-03-21T10:25:51.524Z,70.97
2023-03-21T10:29:00.452Z,71.37
2023-03-21T10:32:07.728Z,70.95
2023-03-21T10:35:15.541Z,71.50
2023-03-21T10:38:24.570Z,71.05
2023-03-21T10:41:28.455Z,70.54
2023-03-21T10:44:34.971Z,70.00
2023-03-21T10:47:40.386Z,70.13
2023-03-21T10:50:49.009Z,70.25
2023-03-21T10:53:57.213Z,69.86
2023-03-21T10:57:08.906Z,67.25
2023-03-21T11:00:21.835Z,67.62
2023-03-21T11:03:33.362Z,67.17
2023-03-21T11:06:41.376Z,67.11
2023-03-21T11:09:52.485Z,67.30
2023-03-21T11:13:02.913Z,68.20
2023-03-21T11:16:12.184Z,68.15
2023-03-21T11:19:20.730Z,68.82
2023-03-21T11:22:30.376Z,69.69
2023-03-21T11:25:39.325Z,69.03
2023-03-21T11:28:44.891Z,69.58
2023-03-21T11:31:48.697Z,68.45
2023-03-21T11:35:01.100Z,68.09
2023-03-21T11:38:07.765Z,68.16
2023-03-21T11:41:25.779Z,66.77
2023-03-21T11:44:36.040Z,66.83
2023-03-21T11:47:40.236Z,67.24
2023-03-21T11:50:51.612Z,66.54
2023-03-21T11:54:12.155Z,66.69
2023-03-21T11:57:32.336Z,66.89
2023-03-21T12:00:49.080Z,66.68
2023-03-21T12:04:46.084Z,65.89
2023-03-21T12:08:07.016Z,65.40
2023-03-21T12:11:21.212Z,65.40
2023-03-21T12:14:39.437Z,64.87
2023-03-21T12:17:59.052Z,65.44
2023-03-21T12:21:11.037Z,64.54
2023-03-21T12:24:22.292Z,64.17
2023-03-21T12:27:44.114Z,64.90
2023-03-21T12:31:02.245Z,65.12
2023-03-21T12:34:29.591Z,65.38
2023-03-21T12:37:45.250Z,64.62
2023-03-21T12:41:22.612Z,63.17
2023-03-21T12:44:33.195Z,64.21
2023-03-21T12:47:42.735Z,64.23
2023-03-21T12:50:51.219Z,63.15
2023-03-21T12:54:14.671Z,62.54
2023-03-21T12:57:24.719Z,62.74
2023-03-21T13:00:38.070Z,62.03
2023-03-21T13:03:46.562Z,62.34
2023-03-21T13:06:56.200Z,61.80
2023-03-21T13:10:02.229Z,62.10
2023-03-21T13:13:20.798Z,62.30
2023-03-21T13:16:31.245Z,63.05
2023-03-21T13:19:45.167Z,62.80
2023-03-21T13:22:48.873Z,63.65
2023-03-21T13:25:56.947Z,63.01
2023-03-21T13:29:02.126Z,63.26
2023-03-21T13:32:18.260Z,63.05
2023-03-21T13:35:27.621Z,63.83
2023-03-21T13:38:36.505Z,63.19
2023-03-21T13:41:47.192Z,63.10
2023-03-21T13:44:57.807Z,63.20
2023-03-21T13:48:04.965Z,61.89
2023-03-21T13:51:10.207Z,62.15
2023-03-21T13:54:27.414Z,61.83
2023-03-21T13:57:40.962Z,63.17
2023-03-21T14:00:46.201Z,62.79
2023-03-21T14:03:50.948Z,61.87
2023-03-21T14:07:00.353Z,62.60
2023-03-21T14:10:10.376Z,61.82
2023-03-21T14:13:20.929Z,61.98
2023-03-21T14:16:29.702Z,61.48
2023-03-21T14:19:34.253Z,61.36
2023-03-21T14:22:38.965Z,61.02
2023-03-21T14:25:47.769Z,60.77
2023-03-21T14:28:54.814Z,61.64
2023-03-21T14:32:01.525Z,61.40
2023-03-21T14:35:10.896Z,61.59
2023-03-21T14:38:23.102Z,62.32
2023-03-21T14:41:30.357Z,61.97
2023-03-21T14:44:54.806Z,63.00
2023-03-21T14:48:06.367Z,62.77
2023-03-21T14:51:13.352Z,63.33
2023-03-21T14:54:19.868Z,63.49
2023-03-21T14:57:28.835Z,63.25
2023-03-21T15:00:35.863Z,63.96
2023-03-21T15:03:41.431Z,64.46
2023-03-21T15:06:58.257Z,63.89
2023-03-21T15:10:07.060Z,64.68
2023-03-21T15:13:22.350Z,63.97
2023-03-21T15:16:26.273Z,64.73
2023-03-21T15:19:35.381Z,64.71
2023-03-21T15:22:44.874Z,64.57
2023-03-21T15:25:48.977Z,65.04
2023-03-21T15:28:59.302Z,64.92
2023-03-21T15:32:07.975Z,64.56
2023-03-21T15:35:22.691Z,65.27
2023-03-21T15:38:34.303Z,65.04
2023-03-21T15:41:38.011Z,65.22
2023-03-21T15:44:51.622Z,65.44
2023-03-21T15:48:01.490Z,65.04
2023-03-21T15:51:12.381Z,65.27
2023-03-21T15:54:24.579Z,65.41
2023-03-21T15:57:32.975Z,65.28
2023-03-21T16:00:42.130Z,64.95
2023-03-21T16:03:50.260Z,64.44
2023-03-21T16:07:01.449Z,64.81
2023-03-21T16:10:06.385Z,64.95
2023-03-21T16:13:14.366Z,64.98
2023-03-21T16:16:22.790Z,65.28
2023-03-21T16:19:29.558Z,64.77
2023-03-21T16:22:35.970Z,64.89
2023-03-21T16:25:40.265Z,64.98
2023-03-21T16:28:44.186Z,65.27
2023-03-21T16:31:49.808Z,65.40
2023-03-21T16:34:54.153Z,64.99
2023-03-21T16:37:59.223Z,64.82
2023-03-21T16:41:04.572Z,65.00
2023-03-21T16:44:08.780Z,65.53
2023-03-21T16:47:17.865Z,64.97
2023-03-21T16:50:28.430Z,65.30
2023-03-21T16:53:33.745Z,65.33
2023-03-21T16:56:42.051Z,65.46
2023-03-21T16:59:46.518Z,66.05
2023-03-21T17:02:51.069Z,65.42
2023-03-21T17:05:55.034Z,65.66
2023-03-21T17:09:01.651Z,65.65
2023-03-21T17:12:13.561Z,65.64
2023-03-21T17:15:18.797Z,65.73
2023-03-21T17:18:22.740Z,65.99
2023-03-21T17:21:30.820Z,66.15
2023-03-21T17:24:37.098Z,65.63
2023-03-21T17:27:40.796Z,65.82
2023-03-21T17:30:44.829Z,65.91
2023-03-21T17:33:49.817Z,65.81
2023-03-21T17:36:54.124Z,65.78
2023-03-21T17:39:59.384Z,66.25
2023-03-21T17:43:04.634Z,66.32
2023-03-21T17:46:12.587Z,66.35
2023-03-21T17:49:17.792Z,66.55
2023-03-21T17:52:21.999Z,66.50
2023-03-21T17:55:28.068Z,66.50
2023-03-21T17:58:31.858Z,66.61
2023-03-21T18:01:36.574Z,66.68
2023-03-21T18:04:40.529Z,67.13
2023-03-21T18:08:08.977Z,67.07
2023-03-21T18:11:13.715Z,66.92
2023-03-21T18:14:23.924Z,67.09
2023-03-21T18:17:30.606Z,67.23
2023-03-21T18:20:51.223Z,67.29
2023-03-21T18:23:56.476Z,67.64
2023-03-21T18:27:02.746Z,67.52
2023-03-21T18:33:35.223Z,68.22
2023-03-21T18:36:39.397Z,68.11
2023-03-21T18:39:45.241Z,67.98
2023-03-21T18:43:41.691Z,68.52
2023-03-21T18:46:15.873Z,68.19
2023-03-21T18:50:02.177Z,68.09
2023-03-21T18:52:44.288Z,68.32
2023-03-21T18:55:51.942Z,68.77
2023-03-21T18:58:58.255Z,68.68
2023-03-21T19:02:03.239Z,68.56
2023-03-21T19:05:08.033Z,68.68
2023-03-21T19:08:12.251Z,68.67
2023-03-21T19:11:21.122Z,68.94
2023-03-21T19:14:26.303Z,69.29
2023-03-21T19:20:55.318Z,68.56
2023-03-21T19:24:25.096Z,68.85
2023-03-21T19:27:23.372Z,68.84
2023-03-21T19:30:28.538Z,69.14
2023-03-21T19:33:32.576Z,69.04
2023-03-21T19:36:36.814Z,68.76
2023-03-21T19:39:41.048Z,69.47
2023-03-21T19:42:44.893Z,69.03
2023-03-21T19:45:51.440Z,69.36
2023-03-21T19:48:57.169Z,69.27
2023-03-21T19:52:01.194Z,69.27
2023-03-21T19:55:06.279Z,69.06
2023-03-21T19:58:10.196Z,69.46
2023-03-21T20:01:15.846Z,69.57
2023-03-21T20:04:19.873Z,69.39
2023-03-21T20:07:23.838Z,69.28
2023-03-21T20:10:28.279Z,69.42
2023-03-21T20:13:32.525Z,70.07
2023-03-21T20:16:37.548Z,70.18
2023-03-21T20:19:41.387Z,69.87
2023-03-21T20:23:07.425Z,70.03
2023-03-21T20:26:15.194Z,70.39
2023-03-21T20:30:06.990Z,70.41
2023-03-21T20:32:46.992Z,70.26
2023-03-21T20:39:19.485Z,70.47
2023-03-21T20:42:24.182Z,70.31
2023-03-21T20:45:27.999Z,70.91
2023-03-21T20:48:34.494Z,70.42
2023-03-21T20:52:45.891Z,70.52
2023-03-21T20:55:03.201Z,70.20
2023-03-21T20:58:29.922Z,71.00
2023-03-21T21:01:33.489Z,70.86
2023-03-21T21:04:55.782Z,70.90
2023-03-21T21:08:03.564Z,70.61
2023-03-21T21:12:02.488Z,70.83
2023-03-21T21:14:31.787Z,70.83
2023-03-21T21:21:06.102Z,71.26
2023-03-21T21:24:10.575Z,70.96
2023-03-21T21:27:15.104Z,71.41
2023-03-21T21:30:18.978Z,71.22
2023-03-21T21:33:22.869Z,71.01
2023-03-21T21:36:28.189Z,71.70
2023-03-21T21:39:35.433Z,71.43
2023-03-21T21:42:39.426Z,71.48
2023-03-21T21:45:43.666Z,71.80
2023-03-21T21:48:47.482Z,71.41
2023-03-21T21:51:52.912Z,71.83
2023-03-21T21:54:56.666Z,71.38
2023-03-21T21:58:01.136Z,71.74
2023-03-21T22:01:05.291Z,71.48
2023-03-21T22:04:10.931Z,72.05
2023-03-21T22:07:16.155Z,71.82
2023-03-21T22:10:21.070Z,72.18
2023-03-21T22:13:24.786Z,71.64
2023-03-21T22:16:28.852Z,71.96
2023-03-21T22:19:32.954Z,72.72
2023-03-21T22:22:38.992Z,72.34
2023-03-21T22:25:43.384Z,72.56
2023-03-21T22:28:47.436Z,72.85
2023-03-21T22:31:51.318Z,72.17
2023-03-21T22:34:56.509Z,72.28
2023-03-21T22:38:01.722Z,72.61
2023-03-21T22:41:07.602Z,72.98
2023-03-21T22:44:11.441Z,72.37
2023-03-21T22:47:15.548Z,72.62
2023-03-21T22:50:19.498Z,73.02
2023-03-21T22:53:24.984Z,72.53
2023-03-21T22:56:28.818Z,73.07
2023-03-21T22:59:33.078Z,72.89
2023-03-21T23:02:36.874Z,73.51
2023-03-21T23:05:41.365Z,73.29
2023-03-21T23:08:46.665Z,74.10
2023-03-21T23:11:50.634Z,73.51
2023-03-21T23:14:54.428Z,73.38
2023-03-21T23:17:58.356Z,73.54
2023-03-21T23:21:02.082Z,73.32
2023-03-21T23:24:09.279Z,73.42
2023-03-21T23:27:14.294Z,73.31
2023-03-21T23:30:18.617Z,72.76
2023-03-21T23:33:22.406Z,72.64
2023-03-21T23:36:26.797Z,72.37
2023-03-21T23:39:33.621Z,72.48
2023-03-21T23:42:37.382Z,72.78
2023-03-21T23:45:42.344Z,72.82
2023-03-21T23:48:47.516Z,72.86
2023-03-21T23:51:51.553Z,72.25
2023-03-21T23:54:56.637Z,72.70
2023-03-21T23:58:00.495Z,72.58
